Time;durP1;ratioP1;P1;durP2;ratioP2;P2;SDS_P1;SDS_P2;PMS_P1;PMS_P2;Temp;Humidity;BMP_temperature;BMP_pressure;BME280_temperature;BME280_humidity;BME280_pressure;Samples;Min_cycle;Max_cycle;Signal;HPM_P1;HPM_P2
2023/02/09 00:01:48;;;;;;;;;;;;;;;;;;6304513;22;19902;-83
2023/02/09 00:04:13;;;;;;;;;;;;;;;;;;6334218;22;19907;-83
2023/02/09 00:06:39;;;;;;;;;;;;;;;;;;6360064;22;19917;-83
2023/02/09 00:09:04;;;;;;;;;;;;;;;;;;6358937;22;19929;-82
2023/02/09 00:14:16;;;;;;;;;;;;;;;;;;6337693;22;20266;-80
2023/02/09 00:16:41;;;;;;;;;;;;;;;;;;6339890;22;19913;-81
2023/02/09 00:19:07;;;;;;;;;;;;;;;;;;6341180;22;19906;-81
2023/02/09 00:21:32;;;;;;;;;;;;;;;;;;6342688;22;19981;-81
2023/02/09 00:23:57;;;;;;;;;;;;;;;;;;6339722;22;20248;-81
2023/02/09 00:26:23;;;;;;;;;;;;;;;;;;6313584;22;19932;-81
2023/02/09 00:28:49;;;;;;;;;;;;;;;;;;6342336;22;19906;-81
2023/02/09 00:31:14;;;;;;;;;;;;;;;;;;6344258;22;20355;-82
2023/02/09 00:33:40;;;;;;;;;;;;;;;;;;6298308;22;19922;-81
2023/02/09 00:36:06;;;;;;;;;;;;;;;;;;6334950;22;20309;-80
2023/02/09 00:38:32;;;;;;;;;;;;;;;;;;6357846;22;19934;-81
2023/02/09 00:40:57;;;;;;;;;;;;;;;;;;6359939;22;19907;-81
2023/02/09 00:43:23;;;;;;;;;;;;;;;;;;6357553;22;19907;-80
2023/02/09 00:45:49;;;;;;;;;;;;;;;;;;6361855;22;19956;-80
2023/02/09 00:48:15;;;;;;;;;;;;;;;;;;6361413;22;19906;-81
2023/02/09 00:50:40;;;;;;;;;;;;;;;;;;6356501;22;19914;-80
2023/02/09 00:53:06;;;;;;;;;;;;;;;;;;6345078;22;19910;-81
2023/02/09 00:55:31;;;;;;;;;;;;;;;;;;6310691;22;19988;-81
2023/02/09 00:57:57;;;;;;;;;;;;;;;;;;6337960;22;19907;-80
2023/02/09 01:00:22;;;;;;;;;;;;;;;;;;6339950;22;19907;-80
2023/02/09 01:02:48;;;;;;;;;;;;;;;;;;6340315;22;19922;-81
2023/02/09 01:05:13;;;;;;;;;;;;;;;;;;6342082;22;20357;-82
2023/02/09 01:07:38;;;;;;;;;;;;;;;;;;6342645;22;19906;-81
2023/02/09 01:10:04;;;;;;;;;;;;;;;;;;6342537;22;19911;-81
2023/02/09 01:12:29;;;;;;;;;;;;;;;;;;6340181;22;19910;-81
2023/02/09 01:14:55;;;;;;;;;;;;;;;;;;6342166;22;19914;-81
2023/02/09 01:17:20;;;;;;;;;;;;;;;;;;6350330;22;19915;-81
2023/02/09 01:19:45;;;;;;;;;;;;;;;;;;6352459;22;19910;-81
2023/02/09 01:22:11;;;;;;;;;;;;;;;;;;6354514;22;19907;-81
2023/02/09 01:24:37;;;;;;;;;;;;;;;;;;6350580;22;19906;-81
2023/02/09 01:27:02;;;;;;;;;;;;;;;;;;6323964;22;19952;-82
2023/02/09 01:29:29;;;;;;;;;;;;;;;;;;6355986;22;19906;-83
2023/02/09 01:31:55;;;;;;;;;;;;;;;;;;6359747;22;19968;-82
2023/02/09 01:34:20;;;;;;;;;;;;;;;;;;6356300;22;19930;-82
2023/02/09 01:36:47;;;;;;;;;;;;;;;;;;6354245;22;19907;-81
2023/02/09 01:39:12;;;;;;;;;;;;;;;;;;6320457;22;19907;-81
2023/02/09 01:41:38;;;;;;;;;;;;;;;;;;6347605;22;20221;-81
2023/02/09 01:44:06;;;;;;;;;;;;;;;;;;6347727;22;19914;-82
2023/02/09 01:46:32;;;;;;;;;;;;;;;;;;6345503;22;19906;-81
2023/02/09 01:48:57;;;;;;;;;;;;;;;;;;6346343;22;19989;-81
2023/02/09 01:51:23;;;;;;;;;;;;;;;;;;6346059;22;19906;-81
2023/02/09 01:53:48;;;;;;;;;;;;;;;;;;6343311;22;19914;-81
2023/02/09 01:56:14;;;;;;;;;;;;;;;;;;6317816;22;19981;-80
2023/02/09 01:58:39;;;;;;;;;;;;;;;;;;6344169;22;20252;-81
2023/02/09 02:01:04;;;;;;;;;;;;;;;;;;6345270;22;19910;-81
2023/02/09 02:03:30;;;;;;;;;;;;;;;;;;6343364;22;20327;-81
2023/02/09 02:05:55;;;;;;;;;;;;;;;;;;6318744;22;19903;-81
2023/02/09 02:08:21;;;;;;;;;;;;;;;;;;6345601;22;19907;-80
2023/02/09 02:10:46;;;;;;;;;;;;;;;;;;6343351;22;19906;-80
2023/02/09 02:13:11;;;;;;;;;;;;;;;;;;6317576;22;19989;-80
2023/02/09 02:15:37;;;;;;;;;;;;;;;;;;6344026;22;19913;-80
2023/02/09 02:18:02;;;;;;;;;;;;;;;;;;6345861;22;20324;-80
2023/02/09 02:20:27;;;;;;;;;;;;;;;;;;6343643;22;19907;-80
2023/02/09 02:22:53;;;;;;;;;;;;;;;;;;6317134;22;19906;-81
2023/02/09 02:25:18;;;;;;;;;;;;;;;;;;6317271;22;19913;-80
2023/02/09 02:27:43;;;;;;;;;;;;;;;;;;6344302;22;19907;-80
2023/02/09 02:30:09;;;;;;;;;;;;;;;;;;6343391;22;20353;-80
2023/02/09 02:32:34;;;;;;;;;;;;;;;;;;6343576;22;19914;-80
2023/02/09 02:35:00;;;;;;;;;;;;;;;;;;6344061;22;19910;-80
2023/02/09 02:37:25;;;;;;;;;;;;;;;;;;6346470;22;19903;-80
2023/02/09 02:39:50;;;;;;;;;;;;;;;;;;6331267;22;20312;-80
2023/02/09 02:45:00;;;;;;;;;;;;;;;;;;6343903;22;19953;-80
2023/02/09 02:47:25;;;;;;;;;;;;;;;;;;6344360;22;19907;-80
2023/02/09 02:49:51;;;;;;;;;;;;;;;;;;6342779;22;19977;-80
2023/02/09 02:52:16;;;;;;;;;;;;;;;;;;6316999;22;19925;-80
2023/02/09 02:54:41;;;;;;;;;;;;;;;;;;6344459;22;19922;-80
2023/02/09 02:57:07;;;;;;;;;;;;;;;;;;6346083;22;19907;-80
2023/02/09 02:59:32;;;;;;;;;;;;;;;;;;6346096;22;20336;-81
2023/02/09 03:01:58;;;;;;;;;;;;;;;;;;6344163;22;19921;-80
2023/02/09 03:04:23;;;;;;;;;;;;;;;;;;6344620;22;19913;-80
2023/02/09 03:06:48;;;;;;;;;;;;;;;;;;6345094;22;19907;-80
2023/02/09 03:09:14;;;;;;;;;;;;;;;;;;6343164;22;20089;-80
2023/02/09 03:11:39;;;;;;;;;;;;;;;;;;6345027;22;19914;-79
2023/02/09 03:14:05;;;;;;;;;;;;;;;;;;6345620;22;20281;-80
2023/02/09 03:16:30;;;;;;;;;;;;;;;;;;6343944;22;19938;-80
2023/02/09 03:18:55;;;;;;;;;;;;;;;;;;6344842;22;19903;-79
2023/02/09 03:21:21;;;;;;;;;;;;;;;;;;6344302;22;19956;-79
2023/02/09 03:23:46;;;;;;;;;;;;;;;;;;6343019;22;19907;-79
2023/02/09 03:26:11;;;;;;;;;;;;;;;;;;6343077;22;19906;-79
2023/02/09 03:28:37;;;;;;;;;;;;;;;;;;6344411;22;20285;-79
2023/02/09 03:31:02;;;;;;;;;;;;;;;;;;6344181;22;19921;-80
2023/02/09 03:33:27;;;;;;;;;;;;;;;;;;6346578;22;20340;-80
2023/02/09 03:35:53;;;;;;;;;;;;;;;;;;6347514;22;19906;-81
2023/02/09 03:38:18;;;;;;;;;;;;;;;;;;6348801;22;19906;-81
2023/02/09 03:40:44;;;;;;;;;;;;;;;;;;6349268;22;19952;-81
2023/02/09 03:43:10;;;;;;;;;;;;;;;;;;6350289;22;19930;-81
2023/02/09 03:45:35;;;;;;;;;;;;;;;;;;6348705;22;19911;-81
2023/02/09 03:48:01;;;;;;;;;;;;;;;;;;6350789;22;19971;-81
2023/02/09 03:50:28;;;;;;;;;;;;;;;;;;6345950;22;19907;-80
2023/02/09 03:52:54;;;;;;;;;;;;;;;;;;6347767;22;19970;-81
2023/02/09 03:55:19;;;;;;;;;;;;;;;;;;6319881;22;19906;-81
2023/02/09 03:57:45;;;;;;;;;;;;;;;;;;6349369;22;19910;-81
2023/02/09 04:00:10;;;;;;;;;;;;;;;;;;6348294;22;19914;-80
2023/02/09 04:02:40;;;;;;;;;;;;;;;;;;6353479;22;19910;-78
2023/02/09 04:05:05;;;;;;;;;;;;;;;;;;6346233;22;19907;-79
2023/02/09 04:07:31;;;;;;;;;;;;;;;;;;6343928;22;19907;-79
2023/02/09 04:09:56;;;;;;;;;;;;;;;;;;6344724;22;19914;-79
2023/02/09 04:12:22;;;;;;;;;;;;;;;;;;6343977;22;19932;-81
2023/02/09 04:14:47;;;;;;;;;;;;;;;;;;6319310;22;19907;-80
2023/02/09 04:17:12;;;;;;;;;;;;;;;;;;6316925;22;19906;-80
2023/02/09 04:19:38;;;;;;;;;;;;;;;;;;6344388;22;19989;-80
2023/02/09 04:22:03;;;;;;;;;;;;;;;;;;6343513;22;20259;-80
2023/02/09 04:24:29;;;;;;;;;;;;;;;;;;6345270;22;19907;-80
2023/02/09 04:26:54;;;;;;;;;;;;;;;;;;6344180;22;19913;-80
2023/02/09 04:29:20;;;;;;;;;;;;;;;;;;6345463;22;20328;-80
2023/02/09 04:31:45;;;;;;;;;;;;;;;;;;6348437;22;19933;-80
2023/02/09 04:34:10;;;;;;;;;;;;;;;;;;6347320;22;20394;-79
2023/02/09 04:36:36;;;;;;;;;;;;;;;;;;6349230;22;19907;-80
2023/02/09 04:39:01;;;;;;;;;;;;;;;;;;6346973;22;19985;-79
2023/02/09 04:41:27;;;;;;;;;;;;;;;;;;6345750;22;20216;-79
2023/02/09 04:43:52;;;;;;;;;;;;;;;;;;6317712;22;19956;-80
2023/02/09 04:46:17;;;;;;;;;;;;;;;;;;6343624;22;19906;-79
2023/02/09 04:48:43;;;;;;;;;;;;;;;;;;6344571;22;19907;-80
2023/02/09 04:51:08;;;;;;;;;;;;;;;;;;6345169;22;19975;-81
2023/02/09 04:53:34;;;;;;;;;;;;;;;;;;6346578;22;19911;-80
2023/02/09 04:55:59;;;;;;;;;;;;;;;;;;6346358;22;19913;-80
2023/02/09 05:01:09;;;;;;;;;;;;;;;;;;6348819;22;19907;-80
2023/02/09 05:03:34;;;;;;;;;;;;;;;;;;6347047;22;19914;-80
2023/02/09 05:05:59;;;;;;;;;;;;;;;;;;6320797;22;19907;-81
2023/02/09 05:08:25;;;;;;;;;;;;;;;;;;6350300;22;19911;-80
2023/02/09 05:10:50;;;;;;;;;;;;;;;;;;6348309;22;19907;-81
2023/02/09 05:13:15;;;;;;;;;;;;;;;;;;6348231;22;19910;-81
2023/02/09 05:15:41;;;;;;;;;;;;;;;;;;6349816;22;20282;-81
2023/02/09 05:18:06;;;;;;;;;;;;;;;;;;6348764;22;19911;-81
2023/02/09 05:20:32;;;;;;;;;;;;;;;;;;6348240;22;19930;-79
2023/02/09 05:22:57;;;;;;;;;;;;;;;;;;6347459;22;20362;-79
2023/02/09 05:25:22;;;;;;;;;;;;;;;;;;6341802;22;19907;-79
2023/02/09 05:27:48;;;;;;;;;;;;;;;;;;6313707;22;19907;-79
2023/02/09 05:30:13;;;;;;;;;;;;;;;;;;6343102;22;20267;-78
2023/02/09 05:32:38;;;;;;;;;;;;;;;;;;6342903;22;19910;-78
2023/02/09 05:35:05;;;;;;;;;;;;;;;;;;6344328;22;20343;-80
2023/02/09 05:37:30;;;;;;;;;;;;;;;;;;6345444;22;19907;-80
2023/02/09 05:39:56;;;;;;;;;;;;;;;;;;6348250;22;19907;-80
2023/02/09 05:42:21;;;;;;;;;;;;;;;;;;6317960;22;20328;-80
2023/02/09 05:44:47;;;;;;;;;;;;;;;;;;6345260;22;19929;-80
2023/02/09 05:47:12;;;;;;;;;;;;;;;;;;6346085;22;20348;-81
2023/02/09 05:49:38;;;;;;;;;;;;;;;;;;6343299;22;20033;-81
2023/02/09 05:52:03;;;;;;;;;;;;;;;;;;6317452;22;19906;-81
2023/02/09 05:54:28;;;;;;;;;;;;;;;;;;6344578;22;20092;-81
2023/02/09 05:56:54;;;;;;;;;;;;;;;;;;6344326;22;19933;-80
2023/02/09 05:59:19;;;;;;;;;;;;;;;;;;6318738;22;19981;-81
2023/02/09 06:04:12;;;;;;;;;;;;;;;;;;6284576;22;19919;-82
2023/02/09 06:06:37;;;;;;;;;;;;;;;;;;6233528;22;19933;-81
2023/02/09 06:09:03;;;;;;;;;;;;;;;;;;6281655;22;20257;-80
2023/02/09 06:11:28;;;;;;;;;;;;;;;;;;6202103;22;20296;-80
2023/02/09 06:13:54;;;;;;;;;;;;;;;;;;6279152;22;19926;-80
2023/02/09 06:16:19;;;;;;;;;;;;;;;;;;6252474;22;19943;-80
2023/02/09 06:18:45;;;;;;;;;;;;;;;;;;6281088;22;19982;-80
2023/02/09 06:21:11;;;;;;;;;;;;;;;;;;6254784;22;19989;-80
2023/02/09 06:23:36;;;;;;;;;;;;;;;;;;6255433;22;20296;-82
2023/02/09 06:26:01;;;;;;;;;;;;;;;;;;6283128;22;19914;-80
2023/02/09 06:28:27;;;;;;;;;;;;;;;;;;6253598;22;19915;-80
2023/02/09 06:30:52;;;;;;;;;;;;;;;;;;6280036;22;20348;-80
2023/02/09 06:33:17;;;;;;;;;;;;;;;;;;6251531;22;19918;-80
2023/02/09 06:35:43;;;;;;;;;;;;;;;;;;6279316;22;20390;-79
2023/02/09 06:38:08;;;;;;;;;;;;;;;;;;6280852;22;19914;-80
2023/02/09 06:40:33;;;;;;;;;;;;;;;;;;6279451;22;20329;-79
2023/02/09 06:42:59;;;;;;;;;;;;;;;;;;6252524;22;19913;-79
2023/02/09 06:45:24;;;;;;;;;;;;;;;;;;6278425;22;19907;-80
2023/02/09 06:47:50;;;;;;;;;;;;;;;;;;6252823;22;19956;-80
2023/02/09 06:50:15;;;;;;;;;;;;;;;;;;6279598;22;20252;-80
2023/02/09 06:52:40;;;;;;;;;;;;;;;;;;6281245;22;19966;-82
2023/02/09 06:55:06;;;;;;;;;;;;;;;;;;6251528;22;19908;-78
2023/02/09 06:57:31;;;;;;;;;;;;;;;;;;6251857;22;19911;-79
2023/02/09 06:59:57;;;;;;;;;;;;;;;;;;6278289;22;19926;-79
2023/02/09 07:02:22;;;;;;;;;;;;;;;;;;6225110;22;19911;-79
2023/02/09 07:04:48;;;;;;;;;;;;;;;;;;6277075;22;19914;-79
2023/02/09 07:07:13;;;;;;;;;;;;;;;;;;6251071;22;19943;-80
2023/02/09 07:09:38;;;;;;;;;;;;;;;;;;6226210;22;19907;-80
2023/02/09 07:12:04;;;;;;;;;;;;;;;;;;6277808;22;19907;-79
2023/02/09 07:14:29;;;;;;;;;;;;;;;;;;6250351;22;19911;-79
2023/02/09 07:16:54;;;;;;;;;;;;;;;;;;6250840;22;20321;-79
2023/02/09 07:19:20;;;;;;;;;;;;;;;;;;6250687;22;20367;-80
2023/02/09 07:21:45;;;;;;;;;;;;;;;;;;6261626;22;19911;-80
2023/02/09 07:24:11;;;;;;;;;;;;;;;;;;6241463;22;19908;-80
2023/02/09 07:26:36;;;;;;;;;;;;;;;;;;6298982;22;20353;-80
2023/02/09 07:29:02;;;;;;;;;;;;;;;;;;6297016;22;19908;-80
2023/02/09 07:31:28;;;;;;;;;;;;;;;;;;6247554;22;19911;-79
2023/02/09 07:33:54;;;;;;;;;;;;;;;;;;6293696;22;19918;-80
2023/02/09 07:36:19;;;;;;;;;;;;;;;;;;6289399;22;19945;-80
2023/02/09 07:38:44;;;;;;;;;;;;;;;;;;6255761;22;20345;-77
2023/02/09 07:41:10;;;;;;;;;;;;;;;;;;6251600;22;20240;-79
2023/02/09 07:43:35;;;;;;;;;;;;;;;;;;6278208;22;19922;-79
2023/02/09 07:46:01;;;;;;;;;;;;;;;;;;6251961;22;19907;-79
2023/02/09 07:48:26;;;;;;;;;;;;;;;;;;6225628;22;20288;-79
2023/02/09 07:50:52;;;;;;;;;;;;;;;;;;6230151;22;19915;-81
2023/02/09 07:53:17;;;;;;;;;;;;;;;;;;6204846;22;19911;-79
2023/02/09 07:55:43;;;;;;;;;;;;;;;;;;6281445;22;20325;-79
2023/02/09 07:58:08;;;;;;;;;;;;;;;;;;6255790;22;19908;-79
2023/02/09 08:00:33;;;;;;;;;;;;;;;;;;6226721;22;19907;-78
2023/02/09 08:02:59;;;;;;;;;;;;;;;;;;6228200;22;19911;-79
2023/02/09 08:05:24;;;;;;;;;;;;;;;;;;6253608;22;19923;-80
2023/02/09 08:07:50;;;;;;;;;;;;;;;;;;6254051;22;20309;-80
2023/02/09 08:10:15;;;;;;;;;;;;;;;;;;6254953;22;19946;-79
2023/02/09 08:12:59;;;;;;;;;;;;;;;;;;6255609;22;19917;-80
2023/02/09 08:15:24;;;;;;;;;;;;;;;;;;6281731;22;19941;-79
2023/02/09 08:17:50;;;;;;;;;;;;;;;;;;6254541;22;20341;-79
2023/02/09 08:20:15;;;;;;;;;;;;;;;;;;6282658;22;19930;-80
2023/02/09 08:22:40;;;;;;;;;;;;;;;;;;6230738;22;19958;-80
2023/02/09 08:25:06;;;;;;;;;;;;;;;;;;6254312;22;19911;-80
2023/02/09 08:27:31;;;;;;;;;;;;;;;;;;6252468;22;19907;-80
2023/02/09 08:29:56;;;;;;;;;;;;;;;;;;6252103;22;19990;-80
2023/02/09 08:32:22;;;;;;;;;;;;;;;;;;6251817;22;19914;-80
2023/02/09 08:34:47;;;;;;;;;;;;;;;;;;6226348;22;20213;-78
2023/02/09 08:37:12;;;;;;;;;;;;;;;;;;6281306;22;19908;-82
2023/02/09 08:39:38;;;;;;;;;;;;;;;;;;6256632;22;19929;-80
2023/02/09 08:42:03;;;;;;;;;;;;;;;;;;6257030;22;19907;-82
2023/02/09 08:44:29;;;;;;;;;;;;;;;;;;6239407;22;20329;-83
2023/02/09 08:46:54;;;;;;;;;;;;;;;;;;6240803;22;19907;-82
2023/02/09 08:49:20;;;;;;;;;;;;;;;;;;6271660;22;19907;-82
2023/02/09 08:51:46;;;;;;;;;;;;;;;;;;6238705;22;19911;-83
2023/02/09 08:54:11;;;;;;;;;;;;;;;;;;6251999;22;19906;-84
2023/02/09 08:56:45;;;;;;;;;;;;;;;;;;6232481;22;19908;-84
2023/02/09 08:59:59;;;;;;;;;;;;;;;;;;6203353;22;20993;-83
2023/02/09 09:02:27;;;;;;;;;;;;;;;;;;6295497;22;19915;-83
2023/02/09 09:05:05;;;;;;;;;;;;;;;;;;6279380;22;19912;-83
2023/02/09 09:07:37;;;;;;;;;;;;;;;;;;6253522;22;19895;-84
2023/02/09 09:10:09;;;;;;;;;;;;;;;;;;6279851;22;19912;-84
2023/02/09 09:12:37;;;;;;;;;;;;;;;;;;6301922;22;19899;-84
2023/02/09 09:15:03;;;;;;;;;;;;;;;;;;6251873;22;19906;-84
2023/02/09 09:17:32;;;;;;;;;;;;;;;;;;6254151;22;19927;-84
2023/02/09 09:20:03;;;;;;;;;;;;;;;;;;6255448;22;19891;-84
2023/02/09 09:22:48;;;;;;;;;;;;;;;;;;6282610;22;19899;-84
2023/02/09 09:25:16;;;;;;;;;;;;;;;;;;6303571;22;19927;-84
2023/02/09 09:27:47;;;;;;;;;;;;;;;;;;6253919;22;19918;-84
2023/02/09 09:30:15;;;;;;;;;;;;;;;;;;6251987;22;19914;-84
2023/02/09 09:32:42;;;;;;;;;;;;;;;;;;6275310;22;19954;-82
2023/02/09 09:35:08;;;;;;;;;;;;;;;;;;6273156;22;19909;-82
2023/02/09 09:37:47;;;;;;;;;;;;;;;;;;;;;
2023/02/09 09:40:19;;;;;;;;;;;;;;;;;;6300378;22;19922;-85
2023/02/09 09:42:54;;;;;;;;;;;;;;;;;;6255146;22;19937;-84
2023/02/09 09:45:24;;;;;;;;;;;;;;;;;;6245964;22;19918;-81
2023/02/09 09:47:49;;;;;;;;;;;;;;;;;;6282191;22;19907;-81
2023/02/09 09:50:15;;;;;;;;;;;;;;;;;;6279958;22;19934;-79
2023/02/09 09:52:40;;;;;;;;;;;;;;;;;;6280204;22;19911;-79
2023/02/09 09:55:06;;;;;;;;;;;;;;;;;;6280940;22;20291;-80
2023/02/09 09:57:31;;;;;;;;;;;;;;;;;;6280226;22;19954;-81
2023/02/09 09:59:57;;;;;;;;;;;;;;;;;;6283012;22;19963;-81
2023/02/09 10:02:22;;;;;;;;;;;;;;;;;;6312248;22;19969;-80
2023/02/09 10:04:47;;;;;;;;;;;;;;;;;;6312482;22;19910;-78
2023/02/09 10:07:13;;;;;;;;;;;;;;;;;;6285766;22;19903;-80
2023/02/09 10:09:38;;;;;;;;;;;;;;;;;;6260248;22;19914;-80
2023/02/09 10:12:04;;;;;;;;;;;;;;;;;;6312106;22;19911;-79
2023/02/09 10:14:29;;;;;;;;;;;;;;;;;;6257130;22;20351;-79
2023/02/09 10:16:54;;;;;;;;;;;;;;;;;;6284032;22;19907;-79
2023/02/09 10:19:20;;;;;;;;;;;;;;;;;;6283968;22;19907;-79
2023/02/09 10:21:45;;;;;;;;;;;;;;;;;;6310383;22;20282;-80
2023/02/09 10:24:10;;;;;;;;;;;;;;;;;;6259053;22;19914;-79
2023/02/09 10:26:36;;;;;;;;;;;;;;;;;;6260968;22;19907;-81
2023/02/09 10:29:01;;;;;;;;;;;;;;;;;;6285624;22;19907;-80
2023/02/09 10:31:27;;;;;;;;;;;;;;;;;;6325455;22;19914;-82
2023/02/09 10:33:53;;;;;;;;;;;;;;;;;;6279681;22;19911;-83
2023/02/09 10:36:19;;;;;;;;;;;;;;;;;;6282389;22;19891;-82
2023/02/09 10:38:50;;;;;;;;;;;;;;;;;;6256187;22;19918;-84
2023/02/09 10:41:17;;;;;;;;;;;;;;;;;;6275079;22;19906;-83
2023/02/09 10:43:43;;;;;;;;;;;;;;;;;;6246161;22;19976;-83
2023/02/09 10:46:12;;;;;;;;;;;;;;;;;;6248222;22;19907;-82
2023/02/09 10:48:39;;;;;;;;;;;;;;;;;;6272997;22;19959;-83
2023/02/09 10:51:08;;;;;;;;;;;;;;;;;;6251431;22;19950;-82
2023/02/09 10:53:41;;;;;;;;;;;;;;;;;;6310489;22;19899;-84
2023/02/09 10:56:14;;;;;;;;;;;;;;;;;;6285580;22;19907;-82
2023/02/09 10:58:41;;;;;;;;;;;;;;;;;;6283175;22;19914;-83
2023/02/09 11:01:18;;;;;;;;;;;;;;;;;;6262204;22;19921;-83
2023/02/09 11:03:48;;;;;;;;;;;;;;;;;;6257639;22;19907;-83
2023/02/09 11:06:20;;;;;;;;;;;;;;;;;;6336210;22;19899;-82
2023/02/09 11:08:50;;;;;;;;;;;;;;;;;;6335730;22;19910;-83
2023/02/09 11:11:19;;;;;;;;;;;;;;;;;;6279741;22;19910;-85
2023/02/09 11:14:00;;;;;;;;;;;;;;;;;;6259713;22;19945;-84
2023/02/09 11:22:11;;;;;;;;;;;;;;;;;;6303960;22;19918;-85
2023/02/09 11:30:00;;;;;;;;;;;;;;;;;;6304210;22;19918;-84
2023/02/09 11:32:35;;;;;;;;;;;;;;;;;;6286633;22;19926;-83
2023/02/09 11:35:21;;;;;;;;;;;;;;;;;;6284282;22;19937;-85
2023/02/09 11:40:29;;;;;;;;;;;;;;;;;;6319678;22;19902;-84
2023/02/09 11:42:58;;;;;;;;;;;;;;;;;;6284774;22;19899;-82
2023/02/09 11:50:47;;;;;;;;;;;;;;;;;;6304697;22;19965;-82
2023/02/09 11:53:25;;;;;;;;;;;;;;;;;;6280552;22;19929;-83
2023/02/09 12:04:01;;;;;;;;;;;;;;;;;;6300901;22;19919;-82
2023/02/09 12:06:27;;;;;;;;;;;;;;;;;;6250896;22;19915;-83
2023/02/09 12:08:52;;;;;;;;;;;;;;;;;;6299605;22;19907;-84
2023/02/09 12:11:18;;;;;;;;;;;;;;;;;;6272604;22;19907;-82
2023/02/09 12:13:43;;;;;;;;;;;;;;;;;;6298841;22;19939;-83
2023/02/09 12:16:11;;;;;;;;;;;;;;;;;;6297500;22;19910;-83
2023/02/09 12:18:39;;;;;;;;;;;;;;;;;;6296092;22;19911;-83
2023/02/09 12:21:05;;;;;;;;;;;;;;;;;;6295992;22;19930;-83
2023/02/09 12:23:31;;;;;;;;;;;;;;;;;;6298483;22;19923;-84
2023/02/09 12:26:00;;;;;;;;;;;;;;;;;;6298791;22;19941;-83
2023/02/09 12:28:25;;;;;;;;;;;;;;;;;;6297027;22;19908;-82
2023/02/09 12:30:51;;;;;;;;;;;;;;;;;;6246432;22;19992;-83
2023/02/09 12:33:16;;;;;;;;;;;;;;;;;;6272481;22;19926;-84
2023/02/09 12:35:42;;;;;;;;;;;;;;;;;;6244283;22;19915;-82
2023/02/09 12:38:08;;;;;;;;;;;;;;;;;;6288127;22;20036;-82
2023/02/09 12:40:33;;;;;;;;;;;;;;;;;;6289389;22;19978;-81
2023/02/09 12:42:58;;;;;;;;;;;;;;;;;;6290776;22;19929;-82
2023/02/09 12:45:24;;;;;;;;;;;;;;;;;;6289420;22;20401;-82
2023/02/09 12:47:52;;;;;;;;;;;;;;;;;;6290170;22;19907;-83
2023/02/09 12:50:23;;;;;;;;;;;;;;;;;;6291585;22;19914;-83
2023/02/09 12:52:48;;;;;;;;;;;;;;;;;;6292069;22;19915;-82
2023/02/09 12:55:14;;;;;;;;;;;;;;;;;;6291269;22;19954;-82
2023/02/09 12:57:40;;;;;;;;;;;;;;;;;;6293776;22;19914;-82
2023/02/09 13:00:05;;;;;;;;;;;;;;;;;;6287323;22;19907;-82
2023/02/09 13:02:30;;;;;;;;;;;;;;;;;;6289437;22;20396;-81
2023/02/09 13:04:56;;;;;;;;;;;;;;;;;;6287934;22;19911;-82
2023/02/09 13:07:21;;;;;;;;;;;;;;;;;;6290910;22;19907;-82
2023/02/09 13:09:47;;;;;;;;;;;;;;;;;;6268072;22;19938;-82
2023/02/09 13:12:13;;;;;;;;;;;;;;;;;;6292021;22;19907;-82
2023/02/09 13:14:39;;;;;;;;;;;;;;;;;;6294449;22;19911;-82
2023/02/09 13:17:04;;;;;;;;;;;;;;;;;;6294862;22;19918;-82
2023/02/09 13:19:33;;;;;;;;;;;;;;;;;;6328692;22;19913;-83
2023/02/09 13:21:59;;;;;;;;;;;;;;;;;;6302135;22;19909;-82
2023/02/09 13:24:24;;;;;;;;;;;;;;;;;;6290067;22;20336;-81
2023/02/09 13:26:50;;;;;;;;;;;;;;;;;;6284706;22;19907;-80
2023/02/09 13:29:18;;;;;;;;;;;;;;;;;;6286796;22;19903;-80
2023/02/09 13:31:48;;;;;;;;;;;;;;;;;;6312734;22;19929;-80
2023/02/09 13:34:13;;;;;;;;;;;;;;;;;;6259954;22;19917;-80
2023/02/09 13:36:38;;;;;;;;;;;;;;;;;;6284130;22;20287;-81
2023/02/09 13:39:04;;;;;;;;;;;;;;;;;;6312945;22;19985;-80
2023/02/09 13:41:29;;;;;;;;;;;;;;;;;;6257841;22;19911;-80
2023/02/09 13:43:55;;;;;;;;;;;;;;;;;;6310751;22;20324;-81
2023/02/09 13:46:20;;;;;;;;;;;;;;;;;;6309314;22;20282;-80
2023/02/09 13:48:46;;;;;;;;;;;;;;;;;;6310782;22;19911;-80
2023/02/09 13:51:11;;;;;;;;;;;;;;;;;;6283768;22;19914;-81
2023/02/09 13:53:36;;;;;;;;;;;;;;;;;;6312387;22;20344;-80
2023/02/09 13:56:02;;;;;;;;;;;;;;;;;;6284146;22;19913;-81
2023/02/09 13:58:27;;;;;;;;;;;;;;;;;;6316223;22;19911;-80
2023/02/09 14:00:53;;;;;;;;;;;;;;;;;;6321096;22;19910;-80
2023/02/09 14:03:18;;;;;;;;;;;;;;;;;;6296730;22;19918;-79
2023/02/09 14:05:44;;;;;;;;;;;;;;;;;;6298367;22;19918;-80
2023/02/09 14:08:09;;;;;;;;;;;;;;;;;;6300588;22;19949;-80
2023/02/09 14:10:37;;;;;;;;;;;;;;;;;;6323297;22;19910;-82
2023/02/09 14:13:06;;;;;;;;;;;;;;;;;;6296118;22;19961;-81
2023/02/09 14:18:15;;;;;;;;;;;;;;;;;;6289425;22;19938;-82
2023/02/09 14:20:41;;;;;;;;;;;;;;;;;;6318355;22;19907;-81
2023/02/09 14:23:07;;;;;;;;;;;;;;;;;;6261045;22;19910;-80
2023/02/09 14:25:32;;;;;;;;;;;;;;;;;;6259793;22;19914;-80
2023/02/09 14:27:58;;;;;;;;;;;;;;;;;;6285764;22;19910;-80
2023/02/09 14:30:23;;;;;;;;;;;;;;;;;;6312981;22;19903;-80
2023/02/09 14:32:48;;;;;;;;;;;;;;;;;;6293139;22;19910;-82
2023/02/09 14:35:14;;;;;;;;;;;;;;;;;;6274497;22;19911;-81
2023/02/09 14:37:39;;;;;;;;;;;;;;;;;;6299564;22;19907;-83
2023/02/09 14:40:08;;;;;;;;;;;;;;;;;;6283832;22;19914;-82
2023/02/09 14:42:38;;;;;;;;;;;;;;;;;;6337173;22;19914;-82
2023/02/09 14:45:09;;;;;;;;;;;;;;;;;;6285402;22;19935;-83
2023/02/09 14:47:38;;;;;;;;;;;;;;;;;;6286101;22;19895;-83
2023/02/09 14:50:04;;;;;;;;;;;;;;;;;;6283540;22;19980;-83
2023/02/09 14:52:31;;;;;;;;;;;;;;;;;;6253904;22;19907;-83
2023/02/09 14:54:57;;;;;;;;;;;;;;;;;;6280810;22;19907;-83
2023/02/09 14:57:23;;;;;;;;;;;;;;;;;;6276454;22;19945;-83
2023/02/09 14:59:56;;;;;;;;;;;;;;;;;;6254666;22;19911;-83
2023/02/09 15:02:27;;;;;;;;;;;;;;;;;;6286523;22;19914;-84
2023/02/09 15:04:53;;;;;;;;;;;;;;;;;;6259971;22;19947;-82
2023/02/09 15:07:19;;;;;;;;;;;;;;;;;;6285360;22;19891;-83
2023/02/09 15:09:45;;;;;;;;;;;;;;;;;;6260029;22;19934;-84
2023/02/09 15:12:13;;;;;;;;;;;;;;;;;;6260215;22;19915;-83
2023/02/09 15:14:44;;;;;;;;;;;;;;;;;;6311915;22;19946;-83
2023/02/09 15:17:10;;;;;;;;;;;;;;;;;;6283965;22;19910;-84
2023/02/09 15:19:36;;;;;;;;;;;;;;;;;;6284945;22;19953;-83
2023/02/09 15:22:02;;;;;;;;;;;;;;;;;;6284921;22;19926;-84
2023/02/09 15:24:28;;;;;;;;;;;;;;;;;;6259234;22;19911;-84
2023/02/09 15:26:54;;;;;;;;;;;;;;;;;;6284198;22;19891;-85
2023/02/09 15:29:20;;;;;;;;;;;;;;;;;;6284779;22;19895;-83
2023/02/09 15:31:48;;;;;;;;;;;;;;;;;;6310727;22;19903;-84
2023/02/09 15:34:19;;;;;;;;;;;;;;;;;;6259326;22;19911;-84
2023/02/09 15:36:48;;;;;;;;;;;;;;;;;;6260103;22;19925;-85
2023/02/09 15:39:30;;;;;;;;;;;;;;;;;;6296192;22;19919;-84
2023/02/09 15:47:52;;;;;;;;;;;;;;;;;;6273586;23;19953;-83
2023/02/09 15:50:26;;;;;;;;;;;;;;;;;;6242244;22;19926;-83
2023/02/09 15:55:42;;;;;;;;;;;;;;;;;;6314037;22;19902;-81
2023/02/09 16:00:51;;;;;;;;;;;;;;;;;;6277027;22;20414;-84
2023/02/09 16:05:53;;;;;;;;;;;;;;;;;;6279932;22;20035;-83
2023/02/09 16:08:22;;;;;;;;;;;;;;;;;;6231644;22;19903;-85
2023/02/09 16:25:16;;;;;;;;;;;;;;;;;;6219105;22;19927;-84
2023/02/09 16:27:49;;;;;;;;;;;;;;;;;;6187312;23;19928;-84
2023/02/09 16:30:18;;;;;;;;;;;;;;;;;;6143098;23;19935;-85
2023/02/09 16:32:48;;;;;;;;;;;;;;;;;;6166876;23;20000;-83
2023/02/09 16:35:23;;;;;;;;;;;;;;;;;;6166514;23;19917;-83
2023/02/09 16:37:54;;;;;;;;;;;;;;;;;;6192171;23;19918;-82
2023/02/09 16:40:25;;;;;;;;;;;;;;;;;;6144940;23;19945;-83
2023/02/09 16:43:02;;;;;;;;;;;;;;;;;;6168948;23;19939;-83
2023/02/09 16:48:15;;;;;;;;;;;;;;;;;;6245665;22;19919;-83
2023/02/09 16:53:43;;;;;;;;;;;;;;;;;;6250609;23;19908;-84
2023/02/09 16:56:16;;;;;;;;;;;;;;;;;;6226554;23;19912;-84
2023/02/09 16:58:46;;;;;;;;;;;;;;;;;;6201465;23;19931;-84
2023/02/09 17:01:29;;;;;;;;;;;;;;;;;;6200834;23;19944;-84
2023/02/09 17:04:06;;;;;;;;;;;;;;;;;;6201251;23;19907;-83
2023/02/09 17:06:33;;;;;;;;;;;;;;;;;;6223239;23;20408;-83
2023/02/09 17:09:09;;;;;;;;;;;;;;;;;;6225162;23;19907;-84
2023/02/09 17:11:49;;;;;;;;;;;;;;;;;;6201747;23;19947;-84
2023/02/09 17:14:21;;;;;;;;;;;;;;;;;;6224808;23;19899;-83
2023/02/09 17:16:53;;;;;;;;;;;;;;;;;;6198955;23;19935;-84
2023/02/09 17:19:41;;;;;;;;;;;;;;;;;;6206341;23;19903;-84
2023/02/09 17:22:58;;;;;;;;;;;;;;;;;;6227814;23;19930;-83
2023/02/09 17:26:11;;;;;;;;;;;;;;;;;;6225584;23;19955;-82
2023/02/09 17:28:53;;;;;;;;;;;;;;;;;;6198830;23;19926;-83
2023/02/09 17:34:14;;;;;;;;;;;;;;;;;;6197527;23;19904;-84
2023/02/09 17:36:44;;;;;;;;;;;;;;;;;;6152726;23;19924;-83
2023/02/09 17:39:10;;;;;;;;;;;;;;;;;;6212698;23;19897;-84
2023/02/09 17:41:37;;;;;;;;;;;;;;;;;;6188295;23;19896;-84
2023/02/09 17:44:04;;;;;;;;;;;;;;;;;;6177718;23;19909;-83
2023/02/09 17:46:30;;;;;;;;;;;;;;;;;;6128806;23;19936;-83
2023/02/09 17:48:58;;;;;;;;;;;;;;;;;;6159011;23;19912;-83
2023/02/09 17:51:29;;;;;;;;;;;;;;;;;;6157377;23;19900;-83
2023/02/09 17:53:55;;;;;;;;;;;;;;;;;;6180347;23;19916;-82
2023/02/09 17:56:21;;;;;;;;;;;;;;;;;;6132348;23;19923;-83
2023/02/09 17:58:47;;;;;;;;;;;;;;;;;;6205388;23;19909;-83
2023/02/09 18:01:12;;;;;;;;;;;;;;;;;;6153873;23;19908;-82
2023/02/09 18:03:38;;;;;;;;;;;;;;;;;;6178031;23;19932;-83